Asyut, Egypt
Current Conditions -  °F | °C
As of 6:00 PM on Monday 22 Dec 2014 (Local Time) from HESG Reporting Station
Clear Clear  
Wind Chill: 64°   Ceiling: Unl
Heat Index: 64°   Visibility: 6mi
Dew Point: 45°   Wind: 12mph
Humidity: 49%   Direction: 310°NW
Pressure: 30.09"   Gusts: NA
Location:  27.19°N, 31.18°E
Report Text: HESG 221600Z 31010KT CAVOK 18/07 Q1019 NOSIG
Loading
Personal Weather Stations






























Interactive Weather Map New forecast layout! Learn more

10-Day Weather Forecast

Advertisements
Track Severe Weather on mobile